Time;durP1;ratioP1;P1;durP2;ratioP2;P2;SDS_P1;SDS_P2;PMS_P1;PMS_P2;Temp;Humidity;BMP_temperature;BMP_pressure;BME280_temperature;BME280_humidity;BME280_pressure;Samples;Min_cycle;Max_cycle;Signal;HPM_P1;HPM_P2
2023/01/03 00:01:21;;;;;;;3.97;1.40;;;5.40;99.90;;;;;;5091527;28;20126;-70
2023/01/03 00:03:47;;;;;;;9.18;1.50;;;4.80;99.90;;;;;;5091264;28;20051;-70
2023/01/03 00:06:18;;;;;;;11.38;1.75;;;4.80;99.90;;;;;;5091898;28;20055;-70
2023/01/03 00:08:44;;;;;;;6.25;1.70;;;4.90;99.90;;;;;;5091534;28;20490;-70
2023/01/03 00:14:15;;;;;;;9.25;1.65;;;4.60;99.90;;;;;;5091907;28;20052;-70
2023/01/03 00:16:41;;;;;;;3.70;1.38;;;4.60;99.90;;;;;;5091951;28;20055;-69
2023/01/03 00:19:11;;;;;;;6.40;1.50;;;4.80;99.90;;;;;;5091769;28;20070;-69
2023/01/03 00:21:38;;;;;;;6.72;1.50;;;4.60;99.90;;;;;;5091248;28;20119;-71
2023/01/03 00:24:08;;;;;;;8.95;1.70;;;5.00;99.90;;;;;;5090403;28;20044;-69
2023/01/03 00:26:34;;;;;;;8.85;1.88;;;4.60;99.90;;;;;;5091642;28;20052;-70
2023/01/03 00:29:00;;;;;;;6.25;1.33;;;5.00;99.90;;;;;;5090824;28;20087;-70
2023/01/03 00:31:26;;;;;;;11.32;1.60;;;4.50;99.90;;;;;;5091397;28;20052;-70
2023/01/03 00:33:52;;;;;;;5.70;1.35;;;5.00;99.90;;;;;;5090804;28;20044;-70
2023/01/03 00:36:18;;;;;;;4.63;1.40;;;5.00;99.90;;;;;;5091331;28;20048;-70
2023/01/03 00:38:43;;;;;;;11.05;1.42;;;5.10;99.90;;;;;;5091556;28;20511;-70
2023/01/03 00:41:10;;;;;;;8.77;1.40;;;4.80;99.90;;;;;;5091435;28;20143;-72
2023/01/03 00:43:36;;;;;;;9.73;1.65;;;4.70;99.90;;;;;;5090095;28;20048;-70
2023/01/03 00:46:03;;;;;;;;;;;4.80;99.90;;;;;;5090306;28;20044;-70
2023/01/03 00:48:28;;;;;;;5.18;1.38;;;4.60;99.90;;;;;;5091434;28;19927;-70
2023/01/03 00:50:54;;;;;;;8.73;1.58;;;5.20;99.90;;;;;;5093995;28;20099;-70
2023/01/03 00:53:21;;;;;;;3.95;1.42;;;4.70;99.90;;;;;;5095268;28;20052;-70
2023/01/03 00:55:47;;;;;;;4.22;1.50;;;4.60;99.90;;;;;;5092606;28;20088;-71
2023/01/03 00:58:13;;;;;;;7.78;1.30;;;4.80;99.90;;;;;;5094033;28;20560;-70
2023/01/03 01:00:38;;;;;;;7.30;1.30;;;4.70;99.90;;;;;;5095234;28;20048;-69
2023/01/03 01:03:04;;;;;;;4.85;1.20;;;;;;;;;;5094490;28;20060;-70
2023/01/03 01:05:30;;;;;;;8.50;1.90;;;5.00;99.90;;;;;;5094879;28;20097;-68
2023/01/03 01:07:56;;;;;;;1.35;1.17;;;5.10;99.90;;;;;;5094918;28;20086;-71
2023/01/03 01:10:23;;;;;;;5.30;1.10;;;4.90;99.90;;;;;;5094859;28;20054;-68
2023/01/03 01:12:49;;;;;;;;;;;5.00;99.90;;;;;;5095306;28;20086;-69
2023/01/03 01:15:14;;;;;;;6.10;1.27;;;5.20;99.90;;;;;;5093592;28;20287;-69
2023/01/03 01:17:40;;;;;;;7.45;1.65;;;5.00;99.90;;;;;;5094208;28;20404;-71
2023/01/03 01:20:07;;;;;;;11.45;1.70;;;5.10;99.90;;;;;;5094490;28;20129;-68
2023/01/03 01:22:33;;;;;;;6.50;1.70;;;5.20;99.90;;;;;;5094610;28;20044;-68
2023/01/03 01:24:59;;;;;;;4.53;1.60;;;5.10;99.90;;;;;;5094233;28;20048;-68
2023/01/03 01:27:25;;;;;;;7.00;1.30;;;5.20;99.90;;;;;;5094430;28;20052;-68
2023/01/03 01:29:51;;;;;;;6.93;1.40;;;5.40;99.90;;;;;;5094226;28;20055;-67
2023/01/03 01:32:16;;;;;;;5.20;1.20;;;4.90;99.90;;;;;;5093507;28;20093;-69
2023/01/03 01:34:42;;;;;;;4.32;1.50;;;4.70;99.90;;;;;;5094416;28;20082;-69
2023/01/03 01:37:08;;;;;;;4.85;1.17;;;;;;;;;;5094127;28;20092;-70
2023/01/03 01:39:34;;;;;;;4.78;1.60;;;5.10;99.90;;;;;;5092998;28;20056;-70
2023/01/03 01:45:11;;;;;;;10.27;1.73;;;5.20;99.90;;;;;;5071179;28;20061;-71
2023/01/03 01:47:54;;;;;;;9.38;1.45;;;4.80;99.90;;;;;;5090084;28;20063;-71
2023/01/03 01:50:36;;;;;;;5.05;1.20;;;4.80;99.90;;;;;;5094409;28;20059;-69
2023/01/03 01:53:07;;;;;;;5.50;1.48;;;4.70;99.90;;;;;;5093754;28;20127;-72
2023/01/03 01:55:49;;;;;;;6.55;1.50;;;4.80;99.90;;;;;;5093982;28;20119;-70
2023/01/03 01:58:16;;;;;;;5.25;1.63;;;4.60;99.90;;;;;;5092704;28;20044;-70
2023/01/03 02:00:43;;;;;;;13.73;1.50;;;5.20;99.90;;;;;;5093126;28;20463;-70
2023/01/03 02:03:10;;;;;;;11.80;1.75;;;4.60;99.90;;;;;;5093776;28;20094;-69
2023/01/03 02:05:38;;;;;;;5.60;1.77;;;4.80;99.90;;;;;;5093943;28;20700;-70
2023/01/03 02:08:04;;;;;;;3.33;1.42;;;4.20;99.90;;;;;;5092048;28;20056;-70
2023/01/03 02:10:45;;;;;;;8.10;1.90;;;;;;;;;;5094154;28;20048;-70
2023/01/03 02:13:40;;;;;;;8.75;2.22;;;5.10;99.90;;;;;;5093774;28;20059;-70
2023/01/03 02:16:19;;;;;;;8.15;1.58;;;4.50;99.90;;;;;;5090006;28;20052;-70
2023/01/03 02:19:22;;;;;;;6.93;1.70;;;4.00;99.90;;;;;;5094027;28;20051;-70
2023/01/03 02:22:25;;;;;;;8.10;1.60;;;4.40;99.90;;;;;;5084738;28;20091;-70
2023/01/03 02:25:09;;;;;;;11.30;1.60;;;4.80;99.90;;;;;;5070640;28;20040;-71
2023/01/03 02:27:47;;;;;;;7.82;2.08;;;4.80;99.90;;;;;;5091092;28;20502;-71
2023/01/03 02:30:30;;;;;;;6.95;1.83;;;4.10;99.90;;;;;;5091997;28;20434;-70
2023/01/03 02:33:12;;;;;;;9.18;1.95;;;4.70;99.90;;;;;;5093617;28;20109;-70
2023/01/03 02:35:52;;;;;;;13.05;2.20;;;4.70;99.90;;;;;;5093334;28;20054;-70
2023/01/03 02:38:25;;;;;;;6.38;2.22;;;4.60;99.90;;;;;;5093167;28;20067;-71
2023/01/03 02:41:19;;;;;;;5.78;1.98;;;4.80;99.90;;;;;;5093329;28;20481;-70
2023/01/03 02:44:03;;;;;;;8.82;2.40;;;4.40;99.90;;;;;;5083724;28;20075;-70
2023/01/03 02:46:41;;;;;;;5.63;1.95;;;4.70;99.90;;;;;;5091743;28;20404;-72
2023/01/03 02:49:15;;;;;;;6.47;2.10;;;4.70;99.90;;;;;;5092948;28;20383;-70
2023/01/03 02:52:02;;;;;;;10.10;2.10;;;3.90;99.90;;;;;;5092772;28;20058;-70
2023/01/03 02:54:34;;;;;;;6.68;1.90;;;4.40;99.90;;;;;;5092785;28;20551;-72
2023/01/03 02:57:09;;;;;;;8.73;1.88;;;;;;;;;;5091732;28;20420;-70
2023/01/03 02:59:45;;;;;;;13.10;2.13;;;4.10;99.90;;;;;;5092718;28;20044;-69
2023/01/03 03:02:12;;;;;;;7.07;1.92;;;4.20;99.90;;;;;;5091489;28;20138;-70
2023/01/03 03:04:39;;;;;;;8.50;2.20;;;4.70;99.90;;;;;;5092848;28;20510;-69
2023/01/03 03:07:39;;;;;;;6.15;2.22;;;4.00;99.90;;;;;;5092535;28;20051;-70
2023/01/03 03:13:13;;;;;;;6.07;1.90;;;4.20;99.90;;;;;;5091549;28;20051;-70
2023/01/03 03:16:00;;;;;;;11.25;2.13;;;4.10;99.90;;;;;;5091256;28;20117;-70
2023/01/03 03:18:46;;;;;;;6.18;2.38;;;3.40;99.90;;;;;;5091588;28;20514;-71
2023/01/03 03:26:54;;;;;;;7.45;2.45;;;3.70;99.90;;;;;;5091657;28;20051;-70
2023/01/03 03:29:20;;;;;;;6.80;2.45;;;3.70;99.90;;;;;;5091423;28;20512;-70
2023/01/03 03:31:49;;;;;;;7.05;2.50;;;3.50;99.90;;;;;;5091001;28;20102;-71
2023/01/03 03:34:23;;;;;;;7.00;2.25;;;3.20;99.90;;;;;;5092358;28;20050;-72
2023/01/03 03:37:01;;;;;;;5.65;2.55;;;2.90;99.90;;;;;;5091948;28;20040;-70
2023/01/03 03:45:39;;;;;;;10.20;3.47;;;;;;;;;;5091943;28;20055;-70
2023/01/03 03:48:23;;;;;;;7.65;3.20;;;2.70;99.90;;;;;;5091402;28;20120;-70
2023/01/03 03:51:01;;;;;;;9.45;3.25;;;3.00;99.90;;;;;;5091767;28;20059;-71
2023/01/03 03:53:29;;;;;;;8.30;3.47;;;;;;;;;;5091551;28;20479;-70
2023/01/03 03:56:06;;;;;;;9.38;4.05;;;3.30;99.90;;;;;;5073738;28;20048;-70
2023/01/03 03:58:42;;;;;;;10.18;3.63;;;;;;;;;;5091950;28;20048;-71
2023/01/03 04:01:12;;;;;;;8.02;3.72;;;2.30;99.90;;;;;;5091534;28;20105;-70
2023/01/03 04:03:40;;;;;;;9.35;4.00;;;;;;;;;;5091319;28;20044;-71
2023/01/03 04:06:28;;;;;;;11.13;3.65;;;3.20;99.90;;;;;;5091608;28;20127;-71
2023/01/03 04:08:54;;;;;;;11.38;3.95;;;2.50;99.90;;;;;;5091112;28;20056;-71
2023/01/03 04:11:20;;;;;;;12.63;4.18;;;;;;;;;;5089992;28;20763;-71
2023/01/03 04:13:46;;;;;;;12.93;3.65;;;;;;;;;;5091543;28;20134;-71
2023/01/03 04:16:12;;;;;;;13.38;3.85;;;;;;;;;;5091411;28;20048;-70
2023/01/03 04:18:38;;;;;;;13.45;4.28;;;3.20;99.90;;;;;;5091352;28;20396;-70
2023/01/03 04:21:04;;;;;;;11.88;3.78;;;;;;;;;;5089995;28;20056;-70
2023/01/03 04:23:30;;;;;;;9.50;3.83;;;;;;;;;;5090870;28;20070;-70
2023/01/03 04:25:56;;;;;;;11.05;3.78;;;3.30;99.90;;;;;;5091305;28;20060;-70
2023/01/03 04:28:22;;;;;;;8.68;3.88;;;;;;;;;;5089341;28;20108;-70
2023/01/03 04:30:48;;;;;;;10.85;4.00;;;2.30;99.90;;;;;;5090235;28;20040;-71
2023/01/03 04:33:14;;;;;;;11.65;4.13;;;;;;;;;;5091073;28;20059;-72
2023/01/03 04:35:40;;;;;;;11.48;4.20;;;3.40;99.90;;;;;;5091125;28;20052;-71
2023/01/03 04:38:06;;;;;;;7.95;4.40;;;;;;;;;;5091201;28;20400;-71
2023/01/03 04:40:37;;;;;;;10.07;4.40;;;;;;;;;;5089480;28;20047;-70
2023/01/03 04:45:48;;;;;;;11.40;4.55;;;3.40;99.90;;;;;;5090975;28;20130;-71
2023/01/03 04:48:14;;;;;;;11.18;4.50;;;;;;;;;;5090867;28;20101;-71
2023/01/03 04:50:40;;;;;;;13.00;4.55;;;;;;;;;;5089730;28;20047;-70
2023/01/03 04:53:06;;;;;;;13.02;4.43;;;;;;;;;;5090411;28;20134;-72
2023/01/03 04:55:32;;;;;;;8.75;4.20;;;3.50;99.90;;;;;;5089492;28;20048;-71
2023/01/03 04:57:58;;;;;;;16.25;4.55;;;3.20;99.90;;;;;;5090899;28;20044;-70
2023/01/03 05:00:24;;;;;;;15.07;5.03;;;;;;;;;;5089457;28;20044;-72
2023/01/03 05:02:49;;;;;;;11.48;4.45;;;2.30;99.90;;;;;;5090981;28;20126;-71
2023/01/03 05:05:15;;;;;;;10.80;4.50;;;3.10;99.90;;;;;;5090261;28;20209;-72
2023/01/03 05:07:42;;;;;;;9.13;4.63;;;;;;;;;;5089680;28;20040;-72
2023/01/03 05:10:08;;;;;;;10.32;4.57;;;2.90;99.90;;;;;;5090542;28;20048;-70
2023/01/03 05:12:33;;;;;;;15.80;5.03;;;2.80;99.90;;;;;;5090962;28;20047;-70
2023/01/03 05:14:59;;;;;;;13.18;4.95;;;4.10;99.90;;;;;;5089533;28;20059;-70
2023/01/03 05:17:25;;;;;;;10.77;4.90;;;;;;;;;;5090569;28;20442;-70
2023/01/03 05:28:04;;;;;;;7.28;4.90;;;3.70;99.90;;;;;;5090420;28;20052;-70
2023/01/03 05:30:30;;;;;;;14.38;5.57;;;2.60;99.90;;;;;;5090511;28;20131;-70
2023/01/03 05:32:57;;;;;;;10.18;5.20;;;3.10;99.90;;;;;;5123628;28;20131;-71
2023/01/03 05:35:22;;;;;;;;;;;2.60;99.90;;;;;;5092465;28;20044;-72
2023/01/03 05:37:52;;;;;;;14.73;5.32;;;3.60;99.90;;;;;;5093962;28;19924;-71
2023/01/03 05:40:18;;;;;;;12.50;5.03;;;;;;;;;;5092942;28;20104;-70
2023/01/03 05:42:43;;;;;;;14.38;5.70;;;2.90;99.90;;;;;;5094234;28;20048;-71
2023/01/03 05:45:09;;;;;;;11.95;5.53;;;3.20;99.90;;;;;;5094455;28;20400;-71
2023/01/03 05:47:35;;;;;;;11.93;6.00;;;3.30;99.90;;;;;;5093817;28;20132;-70
2023/01/03 05:50:01;;;;;;;11.27;5.80;;;2.90;99.90;;;;;;5092689;28;20205;-70
2023/01/03 05:52:26;;;;;;;14.85;6.32;;;3.80;99.90;;;;;;5093525;28;20051;-71
2023/01/03 05:54:52;;;;;;;12.90;5.63;;;;;;;;;;5092936;28;20040;-70
2023/01/03 05:57:18;;;;;;;10.18;5.65;;;3.00;99.90;;;;;;5093760;28;20040;-70
2023/01/03 05:59:44;;;;;;;18.00;6.43;;;;;;;;;;5093789;28;20105;-71
2023/01/03 06:02:10;;;;;;;11.57;5.45;;;2.70;99.90;;;;;;5093786;28;20048;-70
2023/01/03 06:04:36;;;;;;;9.32;5.10;;;2.80;99.90;;;;;;5093721;28;20135;-71
2023/01/03 06:07:02;;;;;;;12.25;5.60;;;;;;;;;;5092914;28;20051;-70
2023/01/03 06:09:28;;;;;;;15.13;5.55;;;;;;;;;;5093646;28;20044;-71
2023/01/03 06:11:54;;;;;;;12.75;5.85;;;;;;;;;;5093917;28;20051;-70
2023/01/03 06:14:20;;;;;;;13.15;5.85;;;;;;;;;;5093619;28;20044;-70
2023/01/03 06:19:30;;;;;;;10.82;5.72;;;4.10;99.90;;;;;;5093539;28;20087;-70
2023/01/03 06:21:56;;;;;;;13.23;5.80;;;;;;;;;;5093047;28;20088;-71
2023/01/03 06:24:22;;;;;;;9.13;5.35;;;3.30;99.90;;;;;;5093169;28;20105;-72
2023/01/03 06:26:48;;;;;;;16.08;6.00;;;;;;;;;;5091729;28;20051;-73
2023/01/03 06:29:14;;;;;;;11.63;6.03;;;;;;;;;;5093090;28;20086;-71
2023/01/03 06:31:40;;;;;;;12.70;6.43;;;4.10;99.90;;;;;;5093380;28;20091;-71
2023/01/03 06:34:06;;;;;;;19.00;6.68;;;;;;;;;;5091919;28;20086;-71
2023/01/03 06:36:33;;;;;;;14.82;6.88;;;;;;;;;;5092810;28;20101;-71
2023/01/03 06:38:59;;;;;;;;;;;2.40;99.90;;;;;;5093134;28;20499;-70
2023/01/03 06:41:25;;;;;;;18.67;7.97;;;;;;;;;;5092953;28;19928;-71
2023/01/03 06:43:51;;;;;;;25.25;9.60;;;;;;;;;;5091754;28;20056;-70
2023/01/03 06:54:33;;;;;;;23.63;11.48;;;;;;;;;;5091600;28;20482;-70
2023/01/03 06:56:59;;;;;;;26.10;11.60;;;;;;;;;;5092759;28;20048;-70
2023/01/03 06:59:25;;;;;;;23.50;11.48;;;2.30;99.90;;;;;;5093256;28;20040;-70
2023/01/03 07:01:52;;;;;;;23.40;11.95;;;;;;;;;;5091936;28;20062;-71
2023/01/03 07:04:19;;;;;;;26.70;12.70;;;;;;;;;;5093318;28;20077;-70
2023/01/03 07:06:45;;;;;;;27.85;12.48;;;;;;;;;;5091799;28;20047;-70
2023/01/03 07:09:11;;;;;;;;;;;2.40;99.90;;;;;;5092320;28;20442;-70
2023/01/03 07:11:38;;;;;;;25.27;13.40;;;;;;;;;;5093207;28;20030;-71
2023/01/03 07:14:05;;;;;;;33.70;14.48;;;;;;;;;;5093119;28;20165;-71
2023/01/03 07:16:34;;;;;;;30.58;13.85;;;3.20;99.90;;;;;;5091987;28;20448;-70
2023/01/03 07:19:00;;;;;;;35.17;14.70;;;;;;;;;;5093112;28;20075;-71
2023/01/03 07:21:28;;;;;;;28.10;13.93;;;;;;;;;;5092676;28;20040;-70
2023/01/03 07:23:55;;;;;;;35.55;14.35;;;;;;;;;;5092959;28;20048;-71
2023/01/03 07:26:23;;;;;;;31.08;15.18;;;;;;;;;;5092885;28;20051;-70
2023/01/03 07:28:49;;;;;;;34.42;16.65;;;;;;;;;;5092744;28;20089;-71
2023/01/03 07:31:15;;;;;;;;;;;;;;;;;;5093225;28;20044;-71
2023/01/03 07:33:41;;;;;;;36.30;15.27;;;;;;;;;;5089926;28;20781;-74
2023/01/03 07:36:09;;;;;;;37.90;16.65;;;;;;;;;;5088901;28;20501;-71
2023/01/03 07:38:36;;;;;;;43.40;17.27;;;2.30;99.90;;;;;;5091681;28;20044;-71
2023/01/03 07:41:03;;;;;;;41.20;17.08;;;2.90;99.90;;;;;;5091847;28;20134;-71
2023/01/03 07:43:35;;;;;;;42.53;17.80;;;;;;;;;;5091965;28;20044;-71
2023/01/03 07:46:18;;;;;;;42.42;17.58;;;;;;;;;;5091813;28;20456;-71
2023/01/03 07:48:45;;;;;;;41.28;17.75;;;;;;;;;;5089864;28;20044;-71
2023/01/03 07:51:13;;;;;;;43.25;18.05;;;3.10;99.90;;;;;;5091889;28;20059;-70
2023/01/03 07:53:39;;;;;;;43.90;18.77;;;;;;;;;;5091882;28;20051;-72
2023/01/03 07:56:09;;;;;;;42.40;18.20;;;;;;;;;;5091454;28;20052;-72
2023/01/03 07:58:36;;;;;;;42.88;18.27;;;;;;;;;;5091459;28;20044;-70
2023/01/03 08:01:02;;;;;;;;;;;;;;;;;;5091262;28;20399;-76
2023/01/03 08:03:28;;;;;;;40.22;18.45;;;;;;;;;;5091159;28;19920;-71
2023/01/03 08:05:54;;;;;;;46.15;19.45;;;;;;;;;;5090731;28;20052;-71
2023/01/03 08:08:20;;;;;;;51.25;20.63;;;;;;;;;;5091663;28;20040;-71
2023/01/03 08:13:30;;;;;;;46.67;19.95;;;;;;;;;;5091736;28;20051;-71
2023/01/03 08:15:56;;;;;;;51.00;20.67;;;2.60;99.90;;;;;;5091319;28;20488;-71
2023/01/03 08:18:23;;;;;;;45.97;21.00;;;;;;;;;;5089559;28;20046;-72
2023/01/03 08:20:50;;;;;;;54.90;20.25;;;;;;;;;;5090256;28;20087;-72
2023/01/03 08:23:16;;;;;;;44.35;19.77;;;;;;;;;;5091585;28;20047;-72
2023/01/03 08:25:43;;;;;;;45.25;18.85;;;;;;;;;;5091039;28;20044;-71
2023/01/03 08:28:10;;;;;;;40.42;19.48;;;;;;;;;;5089959;28;20059;-72
2023/01/03 08:30:39;;;;;;;36.33;17.30;;;;;;;;;;5091498;28;20054;-72
2023/01/03 08:33:07;;;;;;;33.67;15.35;;;;;;;;;;5090797;28;20452;-70
2023/01/03 08:35:37;;;;;;;29.48;15.25;;;1.20;99.90;;;;;;5091519;28;20048;-71
2023/01/03 08:38:06;;;;;;;34.05;16.10;;;;;;;;;;5090308;28;20052;-70
2023/01/03 08:40:34;;;;;;;40.38;16.27;;;;;;;;;;5090960;28;20056;-72
2023/01/03 08:43:02;;;;;;;32.10;16.23;;;;;;;;;;5091349;28;20081;-70
2023/01/03 08:45:28;;;;;;;38.28;17.15;;;;;;;;;;5085144;28;20492;-70
2023/01/03 08:47:57;;;;;;;34.28;15.73;;;;;;;;;;5088781;28;20048;-72
2023/01/03 08:50:24;;;;;;;34.30;17.38;;;3.00;99.90;;;;;;5089846;28;20052;-74
2023/01/03 08:52:50;;;;;;;35.80;16.58;;;2.80;99.90;;;;;;5089688;28;20138;-73
2023/01/03 08:55:16;;;;;;;32.97;15.65;;;;;;;;;;5088391;28;20043;-74
2023/01/03 08:57:42;;;;;;;30.23;14.82;;;;;;;;;;5089739;28;20087;-74
2023/01/03 09:00:08;;;;;;;31.55;15.77;;;;;;;;;;5072716;28;20511;-72
2023/01/03 09:02:35;;;;;;;;;;;3.40;99.90;;;;;;5089176;28;20059;-73
2023/01/03 09:05:00;;;;;;;30.70;15.18;;;1.90;99.90;;;;;;5090966;28;19920;-73
2023/01/03 09:07:27;;;;;;;35.92;15.50;;;;;;;;;;5072497;28;20067;-73
2023/01/03 09:09:53;;;;;;;34.25;16.00;;;;;;;;;;5091248;28;20488;-72
2023/01/03 09:12:19;;;;;;;33.67;15.40;;;;;;;;;;5093496;28;20500;-73
2023/01/03 09:14:45;;;;;;;34.70;15.82;;;2.60;99.90;;;;;;5093283;28;20097;-73
2023/01/03 09:17:11;;;;;;;33.50;15.52;;;;;;;;;;5092923;28;20036;-75
2023/01/03 09:19:37;;;;;;;36.72;15.93;;;;;;;;;;5093239;28;20044;-76
2023/01/03 09:22:02;;;;;;;34.70;15.93;;;2.20;99.90;;;;;;5094471;28;20052;-75
2023/01/03 09:24:28;;;;;;;37.80;16.65;;;2.00;99.90;;;;;;5094655;28;20480;-74
2023/01/03 09:26:54;;;;;;;42.28;16.77;;;;;;;;;;5093701;28;20105;-73
2023/01/03 09:29:20;;;;;;;32.00;15.45;;;3.40;99.90;;;;;;5093142;28;20400;-74
2023/01/03 09:31:46;;;;;;;36.63;15.57;;;;;;;;;;5094349;28;20051;-75
2023/01/03 09:34:12;;;;;;;34.67;17.52;;;2.70;99.90;;;;;;5093775;28;20409;-74
2023/01/03 09:36:39;;;;;;;34.75;15.68;;;3.70;99.90;;;;;;5092569;28;20040;-75
2023/01/03 09:39:05;;;;;;;23.95;13.70;;;;;;;;;;5092787;28;20133;-73
2023/01/03 09:41:31;;;;;;;33.38;15.18;;;2.60;99.90;;;;;;5093538;28;20441;-73
2023/01/03 09:43:57;;;;;;;;;;;;;;;;;;5093504;28;20104;-72
2023/01/03 09:46:25;;;;;;;28.23;14.38;;;3.80;99.90;;;;;;5092432;28;19924;-71
2023/01/03 09:48:54;;;;;;;33.03;14.63;;;3.80;99.90;;;;;;5092134;28;20408;-72
2023/01/03 10:06:01;;;;;;;24.20;12.80;;;;;;;;;;5092338;28;20064;-72
2023/01/03 10:08:36;;;;;;;24.88;12.82;;;;;;;;;;5093439;28;20044;-71
2023/01/03 10:11:10;;;;;;;55.40;16.75;;;3.20;99.90;;;;;;5093071;28;20134;-71
2023/01/03 10:13:45;;;;;;;29.17;15.15;;;;;;;;;;5093036;28;20410;-73
2023/01/03 10:16:30;;;;;;;32.00;15.07;;;;;;;;;;5101004;28;20051;-75
2023/01/03 10:19:20;;;;;;;33.55;16.67;;;2.10;99.90;;;;;;5092457;28;20400;-73
2023/01/03 10:21:49;;;;;;;34.05;16.38;;;3.70;99.90;;;;;;5091802;28;20760;-73
2023/01/03 10:24:17;;;;;;;34.92;16.05;;;;;;;;;;5091273;28;20058;-73
2023/01/03 10:26:43;;;;;;;34.53;17.10;;;;;;;;;;5091629;28;20044;-73
2023/01/03 10:29:10;;;;;;;40.85;17.38;;;;;;;;;;5092639;28;20058;-74
2023/01/03 10:31:48;;;;;;;32.40;16.83;;;;;;;;;;5092594;28;20087;-73
2023/01/03 10:34:14;;;;;;;34.58;16.63;;;1.90;99.90;;;;;;5093244;28;20146;-73
2023/01/03 10:36:40;;;;;;;36.70;17.27;;;2.10;99.90;;;;;;5093114;28;20127;-75
2023/01/03 10:39:08;;;;;;;37.10;17.55;;;3.00;99.90;;;;;;5092794;28;20047;-74
2023/01/03 10:41:47;;;;;;;35.28;15.65;;;;;;;;;;5092969;28;20142;-75
2023/01/03 10:44:28;;;;;;;31.02;15.27;;;3.70;99.90;;;;;;5091738;28;20052;-74
2023/01/03 10:46:55;;;;;;;34.63;15.15;;;;;;;;;;5092332;28;20459;-73
2023/01/03 10:49:23;;;;;;;39.40;15.77;;;;;;;;;;5092070;28;20928;-74
2023/01/03 10:51:53;;;;;;;41.72;17.15;;;4.10;99.90;;;;;;5090831;28;20071;-73
2023/01/03 10:54:19;;;;;;;35.45;17.23;;;2.50;99.90;;;;;;5093381;28;20423;-73
2023/01/03 10:56:47;;;;;;;44.50;20.20;;;3.70;99.90;;;;;;5091784;28;20068;-74
2023/01/03 10:59:24;;;;;;;43.55;19.90;;;;;;;;;;5093172;28;20377;-72
2023/01/03 11:02:13;;;;;;;46.28;20.38;;;2.80;99.90;;;;;;5091944;28;20126;-73
2023/01/03 11:04:40;;;;;;;51.25;19.67;;;3.00;99.90;;;;;;5092094;28;20054;-72
2023/01/03 11:07:12;;;;;;;50.78;20.38;;;4.00;99.90;;;;;;5091616;28;20519;-72
2023/01/03 11:09:42;;;;;;;50.67;19.40;;;;;;;;;;5074794;28;20048;-72
2023/01/03 11:12:37;;;;;;;49.95;19.60;;;4.20;99.90;;;;;;5092741;28;20047;-73
2023/01/03 11:15:31;;;;;;;48.10;19.30;;;2.90;99.90;;;;;;5092968;28;20044;-72
2023/01/03 11:18:01;;;;;;;73.05;22.73;;;3.00;99.90;;;;;;5092947;28;20097;-75
2023/01/03 11:20:41;;;;;;;67.30;22.90;;;;;;;;;;5093127;28;20048;-72
2023/01/03 11:23:15;;;;;;;59.00;20.60;;;;;;;;;;5092693;28;20377;-74
2023/01/03 11:25:50;;;;;;;49.92;20.40;;;;;;;;;;5089340;28;20087;-72
2023/01/03 11:28:40;;;;;;;57.50;21.83;;;5.30;99.90;;;;;;5091020;28;20475;-74
2023/01/03 11:31:15;;;;;;;59.88;21.88;;;3.70;99.90;;;;;;5091154;28;20066;-72
2023/01/03 11:34:00;;;;;;;58.88;22.02;;;5.20;99.90;;;;;;5090095;28;20175;-72
2023/01/03 11:36:41;;;;;;;69.57;24.33;;;;;;;;;;5091986;28;20483;-72
2023/01/03 11:39:40;;;;;;;65.93;22.75;;;4.70;99.90;;;;;;5092089;28;20044;-73
2023/01/03 11:42:33;;;;;;;59.55;22.50;;;5.30;99.90;;;;;;5088718;28;20186;-74
2023/01/03 11:45:35;;;;;;;69.25;24.17;;;5.60;99.90;;;;;;5091397;28;20132;-72
2023/01/03 11:48:10;;;;;;;63.40;22.80;;;4.20;99.90;;;;;;5071138;28;20770;-71
2023/01/03 11:51:21;;;;;;;66.10;24.00;;;5.80;99.90;;;;;;5072991;28;20052;-71
2023/01/03 11:54:01;;;;;;;65.97;24.70;;;;;;;;;;5084402;28;20514;-72
2023/01/03 11:56:35;;;;;;;67.03;23.40;;;5.70;99.90;;;;;;5090471;28;20080;-73
2023/01/03 11:59:12;;;;;;;64.28;24.67;;;3.10;99.90;;;;;;5090221;28;20125;-72
2023/01/03 12:01:59;;;;;;;73.00;25.23;;;5.30;99.90;;;;;;5090838;28;20044;-71
2023/01/03 12:04:50;;;;;;;72.28;25.85;;;3.70;99.90;;;;;;5091766;28;20124;-72
2023/01/03 12:07:37;;;;;;;69.20;25.38;;;3.70;99.90;;;;;;5108012;28;20059;-70
2023/01/03 12:10:22;;;;;;;67.88;25.30;;;5.60;99.90;;;;;;5090583;28;20044;-71
2023/01/03 12:13:13;;;;;;;74.95;25.55;;;4.40;99.90;;;;;;5091024;28;20446;-73
2023/01/03 12:15:54;;;;;;;82.00;29.08;;;5.30;99.90;;;;;;5091823;28;20059;-73
2023/01/03 12:18:58;;;;;;;82.40;28.05;;;4.40;99.90;;;;;;5090610;28;20087;-72
2023/01/03 12:21:34;;;;;;;87.32;27.23;;;5.20;99.90;;;;;;5091738;28;20044;-73
2023/01/03 12:24:18;;;;;;;85.68;27.40;;;5.60;99.90;;;;;;5091486;28;20062;-72
2023/01/03 12:26:53;;;;;;;81.23;26.50;;;3.60;99.90;;;;;;5090477;28;20059;-72
2023/01/03 12:29:33;;;;;;;83.28;28.17;;;3.60;99.90;;;;;;5091837;28;20793;-71
2023/01/03 12:32:05;;;;;;;81.68;28.55;;;4.00;99.90;;;;;;5090475;28;20070;-74
2023/01/03 12:34:57;;;;;;;79.55;28.48;;;6.20;99.90;;;;;;5090671;28;20048;-71
2023/01/03 12:37:29;;;;;;;73.38;27.08;;;5.50;99.90;;;;;;5090423;28;20051;-71
2023/01/03 12:40:22;;;;;;;92.03;28.80;;;6.00;99.90;;;;;;5091521;28;20488;-71
2023/01/03 12:43:03;;;;;;;91.05;30.90;;;;;;;;;;5091660;28;20044;-72
2023/01/03 12:45:41;;;;;;;95.10;30.70;;;;;;;;;;5095354;28;20075;-72
2023/01/03 12:48:19;;;;;;;83.10;30.13;;;4.10;99.90;;;;;;5094558;28;20502;-71
2023/01/03 12:50:52;;;;;;;95.30;31.65;;;4.40;99.90;;;;;;5095864;28;20075;-71
2023/01/03 12:53:49;;;;;;;100.38;33.38;;;6.70;99.90;;;;;;5095449;28;20100;-71
2023/01/03 12:56:43;;;;;;;97.25;31.58;;;6.70;99.90;;;;;;5073466;28;20058;-71
2023/01/03 12:59:46;;;;;;;98.95;31.23;;;7.00;99.90;;;;;;5095460;28;20036;-73
2023/01/03 13:02:33;;;;;;;96.72;32.95;;;4.50;99.90;;;;;;5095348;28;20504;-75
2023/01/03 13:05:24;;;;;;;104.03;34.67;;;4.50;99.90;;;;;;5094391;28;20044;-78
2023/01/03 13:08:05;;;;;;;93.60;31.27;;;5.70;99.90;;;;;;5093749;28;20583;-75
2023/01/03 13:10:35;;;;;;;89.82;32.40;;;6.80;99.90;;;;;;5094255;28;20052;-75
2023/01/03 13:13:01;;;;;;;88.43;30.80;;;4.70;99.90;;;;;;5093174;28;20472;-75
2023/01/03 13:15:34;;;;;;;83.50;30.13;;;4.10;99.90;;;;;;5094616;28;20123;-71
2023/01/03 13:18:21;;;;;;;94.93;31.05;;;7.20;99.90;;;;;;5095232;28;20066;-72
2023/01/03 13:20:49;;;;;;;93.22;33.45;;;4.60;99.90;;;;;;5094990;28;20447;-74
2023/01/03 13:23:54;;;;;;;94.82;31.85;;;7.50;99.90;;;;;;5092210;28;20040;-71
2023/01/03 13:26:29;;;;;;;88.13;29.73;;;7.40;99.90;;;;;;5107725;28;20106;-70
2023/01/03 13:29:34;;;;;;;78.30;29.45;;;5.80;99.90;;;;;;5072755;28;20063;-70
2023/01/03 13:32:23;;;;;;;81.75;28.52;;;6.70;99.90;;;;;;5066055;28;20106;-72
2023/01/03 13:35:18;;;;;;;74.88;27.27;;;5.00;99.90;;;;;;5074591;28;20045;-72
2023/01/03 13:37:53;;;;;;;84.75;28.52;;;4.90;99.90;;;;;;5075140;28;20420;-70
2023/01/03 13:40:34;;;;;;;76.00;27.88;;;6.10;99.90;;;;;;5076930;28;20130;-70
2023/01/03 13:43:17;;;;;;;76.50;29.05;;;7.80;99.90;;;;;;5093569;28;20425;-70
2023/01/03 13:45:42;;;;;;;69.85;25.02;;;7.20;99.90;;;;;;5094705;28;20044;-71
2023/01/03 13:48:30;;;;;;;68.05;25.52;;;7.80;99.90;;;;;;5094567;28;20043;-71
2023/01/03 13:51:06;;;;;;;64.50;24.95;;;4.80;99.90;;;;;;5094401;28;20048;-69
2023/01/03 13:53:37;;;;;;;57.42;23.58;;;6.80;99.90;;;;;;5093363;28;20037;-69
2023/01/03 13:56:15;;;;;;;61.97;23.38;;;7.50;99.90;;;;;;5092816;28;20063;-71
2023/01/03 13:58:56;;;;;;;57.42;23.23;;;4.80;99.90;;;;;;5093427;28;20048;-70
2023/01/03 14:01:39;;;;;;;51.70;22.75;;;6.10;99.90;;;;;;5094071;28;20036;-70
2023/01/03 14:04:18;;;;;;;61.88;22.77;;;5.50;99.90;;;;;;5094272;28;20051;-70
2023/01/03 14:06:56;;;;;;;49.38;19.98;;;6.20;99.90;;;;;;5093149;28;20056;-71
2023/01/03 14:09:50;;;;;;;53.42;21.00;;;7.20;99.90;;;;;;5094098;28;20048;-70
2023/01/03 14:12:41;;;;;;;46.67;19.55;;;6.10;99.90;;;;;;5092805;28;20101;-70
2023/01/03 14:15:19;;;;;;;52.10;20.17;;;4.80;99.90;;;;;;5092849;28;20443;-71
2023/01/03 14:17:51;;;;;;;54.60;20.15;;;8.00;99.90;;;;;;5093020;28;20143;-70
2023/01/03 14:20:25;;;;;;;50.10;20.65;;;8.30;99.90;;;;;;5092845;28;20454;-69
2023/01/03 14:22:52;;;;;;;53.33;19.77;;;8.00;99.90;;;;;;5094045;28;20048;-69
2023/01/03 14:25:39;;;;;;;50.13;20.83;;;7.40;99.90;;;;;;5093810;28;20135;-70
2023/01/03 14:28:24;;;;;;;56.97;20.37;;;7.10;99.90;;;;;;5093470;28;20052;-69
2023/01/03 14:31:04;;;;;;;52.08;21.00;;;8.20;99.90;;;;;;5093839;28;20060;-71
2023/01/03 14:33:42;;;;;;;56.97;21.58;;;8.10;99.90;;;;;;5093824;28;20040;-70
2023/01/03 14:36:13;;;;;;;57.88;21.58;;;8.30;99.90;;;;;;5092084;28;20785;-70
2023/01/03 14:38:49;;;;;;;57.85;21.40;;;5.30;99.90;;;;;;5093654;28;20036;-69
2023/01/03 14:41:38;;;;;;;55.33;21.75;;;6.90;99.90;;;;;;5093624;28;20052;-69
2023/01/03 14:44:09;;;;;;;55.25;22.42;;;7.10;99.90;;;;;;5075636;28;20133;-70
2023/01/03 14:46:36;;;;;;;56.75;22.80;;;8.30;99.90;;;;;;5093586;28;20055;-71